Etusivu
METAR-TAF:

METAR-TAF

Lentoasemat :

El Borma, Tunisia

Leveyspiiri: 31-41N, Pituuspiiri: 009-10E, korkeus merenpinnasta: 258 m

Tämänhetkinen sää

Tämä raportti tehtiin 5 tuntia ja 28 minuuttia sitten, kello 16.00 UTC
Tuuli 7 kn pohjoisesta, vaihdellen pohjoisen/luoteen ja idän/koillisen välillä
Lämpötila 21°C
Kosteus 40%
Ilmanpaine 1027 hPa
Näkyvyys 10 km tai enemmän
Hajanaisia pilviä 2000 ft:n korkeudessa

METAR: DTTR 161600Z 36007KT 330V060 9999 SCT020 21/07 Q1027 NOSIG

Aika: 22:28 (21:28 UTC)

Sääennuste

Tämä raportti tehtiin 3 tuntia ja 28 minuuttia sitten, kello 18.00 UTC
Ennuste voimassa 16. päivästä klo 19 UTC - 17. päivään klo 04 UTC
Tuuli 6 kn pohjoisesta
Näkyvyys 10 km tai enemmän
Hajanaisia pilviä 2000 ft:n korkeudessa

TAF: DTTR 161800Z 1619/1704 36006KT 9999 SCT020

Säähavainnot ja -ennusteet yli 4000 lentoasemalta (METAR- ja TAF-raportit).

Käytössä olevat sääasemat on merkitty karttaan keltaisilla ja punaisilla pisteillä.

Aseta hiiri pisteen päälle nähdäksesi sääaseman nimen.

Klikkaa sitten nähdäksesi säähavainnot ja -ennusteet.

Kartan vaihtaminen: klikkaa mustalla rastilla varustettuja vihreitä pisteitä, niin voit zoomata sisään; viivalla varustettua vihreää pistettä, niin voit zoomata ulos tai vihreitä nuolia, niin pääset viereisille kartoille.


METAR-TAF: